sensor_id;sensor_type;location;lat;lon;timestamp;P1;durP1;ratioP1;P2;durP2;ratioP2
66751;SDS011;53663;42.676;23.238;2023-11-19T00:02:25;6.40;;;2.40;;
66751;SDS011;53663;42.676;23.238;2023-11-19T00:04:51;8.13;;;2.45;;
66751;SDS011;53663;42.676;23.238;2023-11-19T00:07:16;2.67;;;2.20;;
66751;SDS011;53663;42.676;23.238;2023-11-19T00:09:42;3.25;;;2.20;;
66751;SDS011;53663;42.676;23.238;2023-11-19T00:12:08;2.58;;;2.10;;
66751;SDS011;53663;42.676;23.238;2023-11-19T00:14:34;2.20;;;1.67;;
66751;SDS011;53663;42.676;23.238;2023-11-19T00:17:00;2.60;;;2.30;;
66751;SDS011;53663;42.676;23.238;2023-11-19T00:19:27;3.83;;;2.10;;
66751;SDS011;53663;42.676;23.238;2023-11-19T00:21:53;2.90;;;2.30;;
66751;SDS011;53663;42.676;23.238;2023-11-19T00:24:19;2.40;;;2.17;;
66751;SDS011;53663;42.676;23.238;2023-11-19T00:26:46;2.92;;;2.15;;
66751;SDS011;53663;42.676;23.238;2023-11-19T00:29:13;3.47;;;2.00;;
66751;SDS011;53663;42.676;23.238;2023-11-19T00:31:39;4.07;;;2.47;;
66751;SDS011;53663;42.676;23.238;2023-11-19T00:34:06;3.53;;;2.53;;
66751;SDS011;53663;42.676;23.238;2023-11-19T00:36:32;2.90;;;1.90;;
66751;SDS011;53663;42.676;23.238;2023-11-19T00:39:00;3.60;;;2.45;;
66751;SDS011;53663;42.676;23.238;2023-11-19T00:41:27;2.95;;;2.20;;
66751;SDS011;53663;42.676;23.238;2023-11-19T00:43:54;2.65;;;2.05;;
66751;SDS011;53663;42.676;23.238;2023-11-19T00:46:21;2.88;;;2.00;;
66751;SDS011;53663;42.676;23.238;2023-11-19T00:48:46;2.97;;;2.15;;
66751;SDS011;53663;42.676;23.238;2023-11-19T00:51:12;4.70;;;2.47;;
66751;SDS011;53663;42.676;23.238;2023-11-19T00:53:39;3.78;;;2.65;;
66751;SDS011;53663;42.676;23.238;2023-11-19T00:56:05;3.45;;;2.22;;
66751;SDS011;53663;42.676;23.238;2023-11-19T00:58:31;1.90;;;1.80;;
66751;SDS011;53663;42.676;23.238;2023-11-19T01:00:58;3.00;;;2.35;;
66751;SDS011;53663;42.676;23.238;2023-11-19T01:03:25;3.33;;;2.15;;
66751;SDS011;53663;42.676;23.238;2023-11-19T01:05:51;3.05;;;2.40;;
66751;SDS011;53663;42.676;23.238;2023-11-19T01:08:18;3.65;;;1.95;;
66751;SDS011;53663;42.676;23.238;2023-11-19T01:10:44;2.28;;;1.98;;
66751;SDS011;53663;42.676;23.238;2023-11-19T01:13:10;3.35;;;2.25;;
66751;SDS011;53663;42.676;23.238;2023-11-19T01:15:36;4.97;;;2.28;;
66751;SDS011;53663;42.676;23.238;2023-11-19T01:18:02;3.22;;;2.10;;
66751;SDS011;53663;42.676;23.238;2023-11-19T01:20:31;4.47;;;2.00;;
66751;SDS011;53663;42.676;23.238;2023-11-19T01:22:59;3.95;;;2.20;;
66751;SDS011;53663;42.676;23.238;2023-11-19T01:25:25;4.57;;;2.00;;
66751;SDS011;53663;42.676;23.238;2023-11-19T01:27:51;3.00;;;2.35;;
66751;SDS011;53663;42.676;23.238;2023-11-19T01:30:17;3.25;;;2.15;;
66751;SDS011;53663;42.676;23.238;2023-11-19T01:32:44;2.78;;;2.10;;
66751;SDS011;53663;42.676;23.238;2023-11-19T01:35:11;2.05;;;1.83;;
66751;SDS011;53663;42.676;23.238;2023-11-19T01:37:37;2.65;;;1.85;;
66751;SDS011;53663;42.676;23.238;2023-11-19T01:40:03;2.25;;;1.92;;
66751;SDS011;53663;42.676;23.238;2023-11-19T01:42:37;3.17;;;2.10;;
66751;SDS011;53663;42.676;23.238;2023-11-19T01:45:06;2.28;;;2.00;;
66751;SDS011;53663;42.676;23.238;2023-11-19T01:47:34;2.70;;;2.00;;
66751;SDS011;53663;42.676;23.238;2023-11-19T01:50:02;1.83;;;1.73;;
66751;SDS011;53663;42.676;23.238;2023-11-19T01:52:34;3.17;;;2.00;;
66751;SDS011;53663;42.676;23.238;2023-11-19T01:55:04;4.43;;;2.00;;
66751;SDS011;53663;42.676;23.238;2023-11-19T01:57:30;6.70;;;2.47;;
66751;SDS011;53663;42.676;23.238;2023-11-19T01:59:56;2.55;;;2.13;;
66751;SDS011;53663;42.676;23.238;2023-11-19T02:02:22;2.55;;;1.80;;
66751;SDS011;53663;42.676;23.238;2023-11-19T02:04:49;2.83;;;2.03;;
66751;SDS011;53663;42.676;23.238;2023-11-19T02:07:16;2.33;;;1.80;;
66751;SDS011;53663;42.676;23.238;2023-11-19T02:09:43;3.20;;;2.03;;
66751;SDS011;53663;42.676;23.238;2023-11-19T02:12:09;3.25;;;2.22;;
66751;SDS011;53663;42.676;23.238;2023-11-19T02:14:39;2.08;;;1.88;;
66751;SDS011;53663;42.676;23.238;2023-11-19T02:17:05;2.42;;;2.03;;
66751;SDS011;53663;42.676;23.238;2023-11-19T02:19:32;3.58;;;1.77;;
66751;SDS011;53663;42.676;23.238;2023-11-19T02:21:57;2.58;;;2.00;;
66751;SDS011;53663;42.676;23.238;2023-11-19T02:24:23;2.65;;;2.00;;
66751;SDS011;53663;42.676;23.238;2023-11-19T02:26:53;2.97;;;2.13;;
66751;SDS011;53663;42.676;23.238;2023-11-19T02:29:33;4.95;;;1.88;;
66751;SDS011;53663;42.676;23.238;2023-11-19T02:32:00;2.38;;;2.00;;
66751;SDS011;53663;42.676;23.238;2023-11-19T02:34:29;3.78;;;2.13;;
66751;SDS011;53663;42.676;23.238;2023-11-19T02:36:54;2.92;;;1.90;;
66751;SDS011;53663;42.676;23.238;2023-11-19T02:39:20;2.28;;;2.00;;
66751;SDS011;53663;42.676;23.238;2023-11-19T02:41:47;3.45;;;2.25;;
66751;SDS011;53663;42.676;23.238;2023-11-19T02:44:16;3.33;;;2.13;;
66751;SDS011;53663;42.676;23.238;2023-11-19T02:46:42;3.33;;;2.28;;
66751;SDS011;53663;42.676;23.238;2023-11-19T02:49:08;3.88;;;2.13;;
66751;SDS011;53663;42.676;23.238;2023-11-19T02:51:34;3.22;;;1.92;;
66751;SDS011;53663;42.676;23.238;2023-11-19T02:54:01;3.50;;;2.10;;
66751;SDS011;53663;42.676;23.238;2023-11-19T02:56:28;2.78;;;1.80;;
66751;SDS011;53663;42.676;23.238;2023-11-19T02:59:00;2.45;;;1.98;;
66751;SDS011;53663;42.676;23.238;2023-11-19T03:01:33;3.25;;;2.03;;
66751;SDS011;53663;42.676;23.238;2023-11-19T03:04:01;3.33;;;2.08;;
66751;SDS011;53663;42.676;23.238;2023-11-19T03:06:27;2.33;;;1.73;;
66751;SDS011;53663;42.676;23.238;2023-11-19T03:08:57;3.75;;;2.38;;
66751;SDS011;53663;42.676;23.238;2023-11-19T03:11:23;3.53;;;2.20;;
66751;SDS011;53663;42.676;23.238;2023-11-19T03:13:49;1.85;;;1.60;;
66751;SDS011;53663;42.676;23.238;2023-11-19T03:16:16;1.77;;;1.67;;
66751;SDS011;53663;42.676;23.238;2023-11-19T03:18:42;3.38;;;1.92;;
66751;SDS011;53663;42.676;23.238;2023-11-19T03:21:08;4.40;;;1.95;;
66751;SDS011;53663;42.676;23.238;2023-11-19T03:23:34;2.47;;;2.05;;
66751;SDS011;53663;42.676;23.238;2023-11-19T03:26:02;2.38;;;1.80;;
66751;SDS011;53663;42.676;23.238;2023-11-19T03:28:30;2.15;;;1.73;;
66751;SDS011;53663;42.676;23.238;2023-11-19T03:30:56;2.97;;;1.73;;
66751;SDS011;53663;42.676;23.238;2023-11-19T03:33:24;3.55;;;1.98;;
66751;SDS011;53663;42.676;23.238;2023-11-19T03:35:53;2.83;;;2.17;;
66751;SDS011;53663;42.676;23.238;2023-11-19T03:38:22;1.98;;;1.70;;
66751;SDS011;53663;42.676;23.238;2023-11-19T03:40:50;3.55;;;1.95;;
66751;SDS011;53663;42.676;23.238;2023-11-19T03:43:17;3.05;;;2.20;;
66751;SDS011;53663;42.676;23.238;2023-11-19T03:45:44;2.03;;;1.80;;
66751;SDS011;53663;42.676;23.238;2023-11-19T03:48:11;2.17;;;1.90;;
66751;SDS011;53663;42.676;23.238;2023-11-19T03:50:37;2.33;;;1.80;;
66751;SDS011;53663;42.676;23.238;2023-11-19T03:53:04;4.07;;;2.10;;
66751;SDS011;53663;42.676;23.238;2023-11-19T03:55:30;2.25;;;1.90;;
66751;SDS011;53663;42.676;23.238;2023-11-19T03:57:56;2.17;;;1.83;;
66751;SDS011;53663;42.676;23.238;2023-11-19T04:00:22;3.05;;;1.73;;
66751;SDS011;53663;42.676;23.238;2023-11-19T04:02:49;4.13;;;2.00;;
66751;SDS011;53663;42.676;23.238;2023-11-19T04:05:16;2.40;;;2.00;;
66751;SDS011;53663;42.676;23.238;2023-11-19T04:07:44;3.33;;;1.90;;
66751;SDS011;53663;42.676;23.238;2023-11-19T04:10:11;2.22;;;1.88;;
66751;SDS011;53663;42.676;23.238;2023-11-19T04:12:37;3.35;;;2.30;;
66751;SDS011;53663;42.676;23.238;2023-11-19T04:15:03;2.78;;;1.98;;
66751;SDS011;53663;42.676;23.238;2023-11-19T04:17:29;2.10;;;1.90;;
66751;SDS011;53663;42.676;23.238;2023-11-19T04:19:55;4.50;;;2.15;;
66751;SDS011;53663;42.676;23.238;2023-11-19T04:22:21;2.15;;;1.88;;
66751;SDS011;53663;42.676;23.238;2023-11-19T04:24:46;3.47;;;2.10;;
66751;SDS011;53663;42.676;23.238;2023-11-19T04:27:12;2.22;;;1.98;;
66751;SDS011;53663;42.676;23.238;2023-11-19T04:29:39;3.08;;;2.15;;
66751;SDS011;53663;42.676;23.238;2023-11-19T04:32:04;3.30;;;2.10;;
66751;SDS011;53663;42.676;23.238;2023-11-19T04:34:30;4.00;;;2.35;;
66751;SDS011;53663;42.676;23.238;2023-11-19T04:36:56;2.30;;;1.98;;
66751;SDS011;53663;42.676;23.238;2023-11-19T04:39:21;3.20;;;2.10;;
66751;SDS011;53663;42.676;23.238;2023-11-19T04:41:48;3.38;;;2.53;;
66751;SDS011;53663;42.676;23.238;2023-11-19T04:44:14;2.20;;;1.80;;
66751;SDS011;53663;42.676;23.238;2023-11-19T04:46:41;2.67;;;1.90;;
66751;SDS011;53663;42.676;23.238;2023-11-19T04:49:09;3.28;;;2.22;;
66751;SDS011;53663;42.676;23.238;2023-11-19T04:51:42;2.28;;;1.77;;
66751;SDS011;53663;42.676;23.238;2023-11-19T04:54:09;2.88;;;2.08;;
66751;SDS011;53663;42.676;23.238;2023-11-19T04:56:36;2.08;;;1.80;;
66751;SDS011;53663;42.676;23.238;2023-11-19T04:59:05;1.77;;;1.67;;
66751;SDS011;53663;42.676;23.238;2023-11-19T05:01:34;3.60;;;2.10;;
66751;SDS011;53663;42.676;23.238;2023-11-19T05:04:00;3.38;;;2.22;;
66751;SDS011;53663;42.676;23.238;2023-11-19T05:06:27;3.78;;;2.30;;
66751;SDS011;53663;42.676;23.238;2023-11-19T05:08:56;5.63;;;2.33;;
66751;SDS011;53663;42.676;23.238;2023-11-19T05:11:23;1.85;;;1.70;;
66751;SDS011;53663;42.676;23.238;2023-11-19T05:13:49;3.03;;;2.20;;
66751;SDS011;53663;42.676;23.238;2023-11-19T05:16:15;2.90;;;1.98;;
66751;SDS011;53663;42.676;23.238;2023-11-19T05:18:41;3.17;;;2.28;;
66751;SDS011;53663;42.676;23.238;2023-11-19T05:21:07;1.98;;;1.80;;
66751;SDS011;53663;42.676;23.238;2023-11-19T05:23:35;2.50;;;1.98;;
66751;SDS011;53663;42.676;23.238;2023-11-19T05:26:01;2.45;;;1.90;;
66751;SDS011;53663;42.676;23.238;2023-11-19T05:28:27;2.67;;;1.88;;
66751;SDS011;53663;42.676;23.238;2023-11-19T05:30:53;2.47;;;1.98;;
66751;SDS011;53663;42.676;23.238;2023-11-19T05:33:18;1.85;;;1.75;;
66751;SDS011;53663;42.676;23.238;2023-11-19T05:35:44;2.78;;;1.90;;
66751;SDS011;53663;42.676;23.238;2023-11-19T05:38:09;2.95;;;2.00;;
66751;SDS011;53663;42.676;23.238;2023-11-19T05:40:35;2.95;;;2.00;;
66751;SDS011;53663;42.676;23.238;2023-11-19T05:43:01;2.42;;;1.98;;
66751;SDS011;53663;42.676;23.238;2023-11-19T05:45:27;2.47;;;1.92;;
66751;SDS011;53663;42.676;23.238;2023-11-19T05:47:52;4.03;;;2.10;;
66751;SDS011;53663;42.676;23.238;2023-11-19T05:50:18;3.08;;;2.10;;
66751;SDS011;53663;42.676;23.238;2023-11-19T05:52:44;2.53;;;2.15;;
66751;SDS011;53663;42.676;23.238;2023-11-19T05:55:10;2.65;;;2.05;;
66751;SDS011;53663;42.676;23.238;2023-11-19T05:57:39;3.40;;;1.98;;
66751;SDS011;53663;42.676;23.238;2023-11-19T06:00:07;3.53;;;2.03;;
66751;SDS011;53663;42.676;23.238;2023-11-19T06:02:36;2.17;;;1.98;;
66751;SDS011;53663;42.676;23.238;2023-11-19T06:05:03;2.90;;;2.10;;
66751;SDS011;53663;42.676;23.238;2023-11-19T06:07:31;3.17;;;2.20;;
66751;SDS011;53663;42.676;23.238;2023-11-19T06:09:56;3.10;;;2.20;;
66751;SDS011;53663;42.676;23.238;2023-11-19T06:12:22;3.60;;;2.20;;
66751;SDS011;53663;42.676;23.238;2023-11-19T06:14:47;3.17;;;2.00;;
66751;SDS011;53663;42.676;23.238;2023-11-19T06:17:13;2.72;;;2.10;;
66751;SDS011;53663;42.676;23.238;2023-11-19T06:19:38;3.58;;;2.20;;
66751;SDS011;53663;42.676;23.238;2023-11-19T06:22:04;2.78;;;2.10;;
66751;SDS011;53663;42.676;23.238;2023-11-19T06:24:29;3.38;;;2.25;;
66751;SDS011;53663;42.676;23.238;2023-11-19T06:26:55;5.45;;;2.00;;
66751;SDS011;53663;42.676;23.238;2023-11-19T06:29:20;3.17;;;2.30;;
66751;SDS011;53663;42.676;23.238;2023-11-19T06:31:46;3.60;;;2.55;;
66751;SDS011;53663;42.676;23.238;2023-11-19T06:34:14;3.20;;;2.20;;
66751;SDS011;53663;42.676;23.238;2023-11-19T06:36:39;3.47;;;2.30;;
66751;SDS011;53663;42.676;23.238;2023-11-19T06:39:05;3.22;;;2.10;;
66751;SDS011;53663;42.676;23.238;2023-11-19T06:41:31;3.35;;;2.20;;
66751;SDS011;53663;42.676;23.238;2023-11-19T06:43:56;2.55;;;1.92;;
66751;SDS011;53663;42.676;23.238;2023-11-19T06:46:22;3.42;;;2.40;;
66751;SDS011;53663;42.676;23.238;2023-11-19T06:48:47;3.83;;;2.40;;
66751;SDS011;53663;42.676;23.238;2023-11-19T06:51:13;3.42;;;2.22;;
66751;SDS011;53663;42.676;23.238;2023-11-19T06:53:39;2.90;;;2.13;;
66751;SDS011;53663;42.676;23.238;2023-11-19T06:56:06;4.13;;;2.83;;
66751;SDS011;53663;42.676;23.238;2023-11-19T06:58:42;3.63;;;2.25;;
66751;SDS011;53663;42.676;23.238;2023-11-19T07:01:07;2.97;;;2.10;;
66751;SDS011;53663;42.676;23.238;2023-11-19T07:03:34;6.65;;;2.00;;
66751;SDS011;53663;42.676;23.238;2023-11-19T07:06:00;2.50;;;2.03;;
66751;SDS011;53663;42.676;23.238;2023-11-19T07:08:26;2.30;;;2.10;;
66751;SDS011;53663;42.676;23.238;2023-11-19T07:10:52;3.08;;;2.35;;
66751;SDS011;53663;42.676;23.238;2023-11-19T07:13:18;3.13;;;2.00;;
66751;SDS011;53663;42.676;23.238;2023-11-19T07:15:44;2.25;;;1.90;;
66751;SDS011;53663;42.676;23.238;2023-11-19T07:18:10;2.88;;;2.40;;
66751;SDS011;53663;42.676;23.238;2023-11-19T07:20:36;7.13;;;2.10;;
66751;SDS011;53663;42.676;23.238;2023-11-19T07:23:03;4.07;;;2.40;;
66751;SDS011;53663;42.676;23.238;2023-11-19T07:25:29;2.50;;;2.30;;
66751;SDS011;53663;42.676;23.238;2023-11-19T07:27:54;4.40;;;2.42;;
66751;SDS011;53663;42.676;23.238;2023-11-19T07:30:20;4.38;;;2.70;;
66751;SDS011;53663;42.676;23.238;2023-11-19T07:32:46;4.03;;;2.72;;
66751;SDS011;53663;42.676;23.238;2023-11-19T07:35:12;5.03;;;2.90;;
66751;SDS011;53663;42.676;23.238;2023-11-19T07:37:37;4.50;;;2.55;;
66751;SDS011;53663;42.676;23.238;2023-11-19T07:40:03;2.97;;;2.28;;
66751;SDS011;53663;42.676;23.238;2023-11-19T07:42:29;2.92;;;2.35;;
66751;SDS011;53663;42.676;23.238;2023-11-19T07:44:54;2.88;;;2.35;;
66751;SDS011;53663;42.676;23.238;2023-11-19T07:47:21;3.50;;;2.30;;
66751;SDS011;53663;42.676;23.238;2023-11-19T07:49:49;4.13;;;2.63;;
66751;SDS011;53663;42.676;23.238;2023-11-19T07:52:15;2.78;;;2.13;;
66751;SDS011;53663;42.676;23.238;2023-11-19T07:54:41;2.55;;;2.13;;
66751;SDS011;53663;42.676;23.238;2023-11-19T07:57:06;7.07;;;2.60;;
66751;SDS011;53663;42.676;23.238;2023-11-19T07:59:32;5.03;;;3.22;;
66751;SDS011;53663;42.676;23.238;2023-11-19T08:01:57;3.67;;;2.25;;
66751;SDS011;53663;42.676;23.238;2023-11-19T08:04:23;2.60;;;2.17;;
66751;SDS011;53663;42.676;23.238;2023-11-19T08:06:49;4.25;;;2.78;;
66751;SDS011;53663;42.676;23.238;2023-11-19T08:09:14;5.78;;;2.47;;
66751;SDS011;53663;42.676;23.238;2023-11-19T08:11:40;2.72;;;2.08;;
66751;SDS011;53663;42.676;23.238;2023-11-19T08:14:06;3.13;;;2.45;;
66751;SDS011;53663;42.676;23.238;2023-11-19T08:16:32;3.97;;;2.22;;
66751;SDS011;53663;42.676;23.238;2023-11-19T08:18:57;3.38;;;2.42;;
66751;SDS011;53663;42.676;23.238;2023-11-19T08:21:23;3.50;;;2.70;;
66751;SDS011;53663;42.676;23.238;2023-11-19T08:23:49;4.55;;;2.63;;
66751;SDS011;53663;42.676;23.238;2023-11-19T08:26:15;3.10;;;2.35;;
66751;SDS011;53663;42.676;23.238;2023-11-19T08:28:41;3.47;;;2.38;;
66751;SDS011;53663;42.676;23.238;2023-11-19T08:31:06;4.75;;;2.90;;
66751;SDS011;53663;42.676;23.238;2023-11-19T08:33:32;7.72;;;3.20;;
66751;SDS011;53663;42.676;23.238;2023-11-19T08:35:57;6.65;;;3.08;;
66751;SDS011;53663;42.676;23.238;2023-11-19T08:38:24;7.10;;;3.35;;
66751;SDS011;53663;42.676;23.238;2023-11-19T08:40:50;6.07;;;3.30;;
66751;SDS011;53663;42.676;23.238;2023-11-19T08:43:15;7.05;;;3.28;;
66751;SDS011;53663;42.676;23.238;2023-11-19T08:45:41;4.93;;;3.10;;
66751;SDS011;53663;42.676;23.238;2023-11-19T08:48:06;4.07;;;2.63;;
66751;SDS011;53663;42.676;23.238;2023-11-19T08:50:32;3.58;;;2.40;;
66751;SDS011;53663;42.676;23.238;2023-11-19T08:52:57;3.75;;;2.67;;
66751;SDS011;53663;42.676;23.238;2023-11-19T08:55:23;3.80;;;2.53;;
66751;SDS011;53663;42.676;23.238;2023-11-19T08:57:48;3.53;;;2.22;;
66751;SDS011;53663;42.676;23.238;2023-11-19T09:00:14;3.88;;;2.58;;
66751;SDS011;53663;42.676;23.238;2023-11-19T09:02:40;4.05;;;2.30;;
66751;SDS011;53663;42.676;23.238;2023-11-19T09:05:05;3.72;;;2.70;;
66751;SDS011;53663;42.676;23.238;2023-11-19T09:07:34;4.03;;;2.42;;
66751;SDS011;53663;42.676;23.238;2023-11-19T09:10:00;3.05;;;2.40;;
66751;SDS011;53663;42.676;23.238;2023-11-19T09:12:26;4.40;;;2.65;;
66751;SDS011;53663;42.676;23.238;2023-11-19T09:14:51;4.72;;;2.50;;
66751;SDS011;53663;42.676;23.238;2023-11-19T09:17:17;3.53;;;2.40;;
66751;SDS011;53663;42.676;23.238;2023-11-19T09:19:43;3.78;;;2.35;;
66751;SDS011;53663;42.676;23.238;2023-11-19T09:22:09;4.82;;;2.40;;
66751;SDS011;53663;42.676;23.238;2023-11-19T09:24:34;6.15;;;3.70;;
66751;SDS011;53663;42.676;23.238;2023-11-19T09:27:00;5.03;;;2.72;;
66751;SDS011;53663;42.676;23.238;2023-11-19T09:29:25;4.32;;;2.67;;
66751;SDS011;53663;42.676;23.238;2023-11-19T09:31:51;6.15;;;3.60;;
66751;SDS011;53663;42.676;23.238;2023-11-19T09:34:16;8.70;;;3.80;;
66751;SDS011;53663;42.676;23.238;2023-11-19T09:36:42;7.70;;;3.50;;
66751;SDS011;53663;42.676;23.238;2023-11-19T09:39:12;4.50;;;2.80;;
66751;SDS011;53663;42.676;23.238;2023-11-19T09:41:42;4.07;;;2.45;;
66751;SDS011;53663;42.676;23.238;2023-11-19T09:44:10;4.97;;;2.85;;
66751;SDS011;53663;42.676;23.238;2023-11-19T09:46:37;6.40;;;3.10;;
66751;SDS011;53663;42.676;23.238;2023-11-19T09:49:04;4.18;;;2.67;;
66751;SDS011;53663;42.676;23.238;2023-11-19T09:51:33;3.85;;;2.53;;
66751;SDS011;53663;42.676;23.238;2023-11-19T09:53:58;3.50;;;2.45;;
66751;SDS011;53663;42.676;23.238;2023-11-19T09:56:24;2.92;;;2.45;;
66751;SDS011;53663;42.676;23.238;2023-11-19T09:58:51;3.78;;;2.55;;
66751;SDS011;53663;42.676;23.238;2023-11-19T10:01:17;4.95;;;2.70;;
66751;SDS011;53663;42.676;23.238;2023-11-19T10:03:42;5.13;;;2.30;;
66751;SDS011;53663;42.676;23.238;2023-11-19T10:06:11;2.95;;;2.30;;
66751;SDS011;53663;42.676;23.238;2023-11-19T10:08:38;4.40;;;2.65;;
66751;SDS011;53663;42.676;23.238;2023-11-19T10:11:05;4.82;;;2.60;;
66751;SDS011;53663;42.676;23.238;2023-11-19T10:13:31;3.53;;;2.30;;
66751;SDS011;53663;42.676;23.238;2023-11-19T10:15:58;2.50;;;1.95;;
66751;SDS011;53663;42.676;23.238;2023-11-19T10:18:25;3.70;;;2.17;;
66751;SDS011;53663;42.676;23.238;2023-11-19T10:20:51;2.75;;;2.13;;
66751;SDS011;53663;42.676;23.238;2023-11-19T10:23:17;2.75;;;2.17;;
66751;SDS011;53663;42.676;23.238;2023-11-19T10:25:43;3.22;;;2.15;;
66751;SDS011;53663;42.676;23.238;2023-11-19T10:28:08;2.90;;;2.20;;
66751;SDS011;53663;42.676;23.238;2023-11-19T10:30:34;3.60;;;2.22;;
66751;SDS011;53663;42.676;23.238;2023-11-19T10:33:09;4.35;;;2.60;;
66751;SDS011;53663;42.676;23.238;2023-11-19T10:35:52;3.67;;;2.28;;
66751;SDS011;53663;42.676;23.238;2023-11-19T10:38:18;2.35;;;2.10;;
66751;SDS011;53663;42.676;23.238;2023-11-19T10:40:44;2.25;;;1.90;;
66751;SDS011;53663;42.676;23.238;2023-11-19T10:43:09;2.60;;;1.98;;
66751;SDS011;53663;42.676;23.238;2023-11-19T10:45:38;3.65;;;2.20;;
66751;SDS011;53663;42.676;23.238;2023-11-19T10:48:07;2.33;;;1.73;;
66751;SDS011;53663;42.676;23.238;2023-11-19T10:50:33;3.67;;;2.40;;
66751;SDS011;53663;42.676;23.238;2023-11-19T10:53:06;3.58;;;1.90;;
66751;SDS011;53663;42.676;23.238;2023-11-19T10:55:34;2.75;;;2.00;;
66751;SDS011;53663;42.676;23.238;2023-11-19T10:58:01;2.38;;;2.17;;
66751;SDS011;53663;42.676;23.238;2023-11-19T11:00:38;4.20;;;2.15;;
66751;SDS011;53663;42.676;23.238;2023-11-19T11:03:16;9.55;;;4.47;;
66751;SDS011;53663;42.676;23.238;2023-11-19T11:05:50;7.75;;;3.78;;
66751;SDS011;53663;42.676;23.238;2023-11-19T11:08:17;3.47;;;2.33;;
66751;SDS011;53663;42.676;23.238;2023-11-19T11:10:54;5.05;;;2.30;;
66751;SDS011;53663;42.676;23.238;2023-11-19T11:13:22;3.78;;;2.50;;
66751;SDS011;53663;42.676;23.238;2023-11-19T11:15:49;2.40;;;2.13;;
66751;SDS011;53663;42.676;23.238;2023-11-19T11:18:15;2.83;;;2.33;;
66751;SDS011;53663;42.676;23.238;2023-11-19T11:20:43;4.07;;;2.40;;
66751;SDS011;53663;42.676;23.238;2023-11-19T11:28:56;2.38;;;2.03;;
66751;SDS011;53663;42.676;23.238;2023-11-19T11:39:35;2.22;;;2.00;;
66751;SDS011;53663;42.676;23.238;2023-11-19T11:50:11;2.38;;;1.80;;
66751;SDS011;53663;42.676;23.238;2023-11-19T11:55:25;3.08;;;1.90;;
66751;SDS011;53663;42.676;23.238;2023-11-19T11:57:59;2.17;;;1.80;;
66751;SDS011;53663;42.676;23.238;2023-11-19T12:02:56;1.85;;;1.73;;
66751;SDS011;53663;42.676;23.238;2023-11-19T12:05:24;1.90;;;1.80;;
66751;SDS011;53663;42.676;23.238;2023-11-19T12:07:57;3.03;;;2.40;;
66751;SDS011;53663;42.676;23.238;2023-11-19T12:10:30;2.22;;;2.00;;
66751;SDS011;53663;42.676;23.238;2023-11-19T12:13:00;3.13;;;2.13;;
66751;SDS011;53663;42.676;23.238;2023-11-19T12:15:26;6.18;;;3.28;;
66751;SDS011;53663;42.676;23.238;2023-11-19T12:17:53;10.27;;;3.97;;
66751;SDS011;53663;42.676;23.238;2023-11-19T12:20:22;8.80;;;4.13;;
66751;SDS011;53663;42.676;23.238;2023-11-19T12:22:49;12.00;;;3.42;;
66751;SDS011;53663;42.676;23.238;2023-11-19T12:25:16;5.82;;;3.17;;
66751;SDS011;53663;42.676;23.238;2023-11-19T12:27:46;7.93;;;3.08;;
66751;SDS011;53663;42.676;23.238;2023-11-19T12:32:49;2.70;;;2.30;;
66751;SDS011;53663;42.676;23.238;2023-11-19T12:35:14;3.90;;;2.42;;
66751;SDS011;53663;42.676;23.238;2023-11-19T12:37:40;2.30;;;2.03;;
66751;SDS011;53663;42.676;23.238;2023-11-19T12:40:31;2.22;;;1.80;;
66751;SDS011;53663;42.676;23.238;2023-11-19T12:42:55;3.22;;;2.33;;
66751;SDS011;53663;42.676;23.238;2023-11-19T12:45:22;2.53;;;2.10;;
66751;SDS011;53663;42.676;23.238;2023-11-19T12:47:49;2.20;;;2.00;;
66751;SDS011;53663;42.676;23.238;2023-11-19T12:50:17;3.30;;;1.90;;
66751;SDS011;53663;42.676;23.238;2023-11-19T12:52:54;1.85;;;1.75;;
66751;SDS011;53663;42.676;23.238;2023-11-19T12:55:25;3.72;;;2.00;;
66751;SDS011;53663;42.676;23.238;2023-11-19T12:57:54;2.38;;;1.83;;
66751;SDS011;53663;42.676;23.238;2023-11-19T13:00:21;2.17;;;1.98;;
66751;SDS011;53663;42.676;23.238;2023-11-19T13:02:48;2.38;;;1.90;;
66751;SDS011;53663;42.676;23.238;2023-11-19T13:05:25;3.58;;;2.15;;
66751;SDS011;53663;42.676;23.238;2023-11-19T13:10:30;4.63;;;2.08;;
66751;SDS011;53663;42.676;23.238;2023-11-19T13:13:04;2.63;;;2.00;;
66751;SDS011;53663;42.676;23.238;2023-11-19T13:15:31;2.20;;;2.00;;
66751;SDS011;53663;42.676;23.238;2023-11-19T13:18:00;2.78;;;2.08;;
66751;SDS011;53663;42.676;23.238;2023-11-19T13:20:27;1.77;;;1.67;;
66751;SDS011;53663;42.676;23.238;2023-11-19T13:23:00;3.35;;;2.30;;
66751;SDS011;53663;42.676;23.238;2023-11-19T13:25:27;3.83;;;2.30;;
66751;SDS011;53663;42.676;23.238;2023-11-19T13:27:53;7.50;;;2.95;;
66751;SDS011;53663;42.676;23.238;2023-11-19T13:30:20;3.85;;;1.90;;
66751;SDS011;53663;42.676;23.238;2023-11-19T13:32:47;2.70;;;1.95;;
66751;SDS011;53663;42.676;23.238;2023-11-19T13:35:13;1.88;;;1.73;;
66751;SDS011;53663;42.676;23.238;2023-11-19T13:37:39;5.93;;;2.40;;
66751;SDS011;53663;42.676;23.238;2023-11-19T13:40:06;3.80;;;2.00;;
66751;SDS011;53663;42.676;23.238;2023-11-19T13:42:32;4.05;;;2.45;;
66751;SDS011;53663;42.676;23.238;2023-11-19T13:44:58;4.00;;;2.05;;
66751;SDS011;53663;42.676;23.238;2023-11-19T13:47:23;8.52;;;2.80;;
66751;SDS011;53663;42.676;23.238;2023-11-19T13:49:49;2.50;;;2.05;;
66751;SDS011;53663;42.676;23.238;2023-11-19T13:52:15;11.48;;;2.35;;
66751;SDS011;53663;42.676;23.238;2023-11-19T13:54:40;4.78;;;2.40;;
66751;SDS011;53663;42.676;23.238;2023-11-19T13:57:06;5.72;;;2.90;;
66751;SDS011;53663;42.676;23.238;2023-11-19T13:59:31;9.43;;;3.15;;
66751;SDS011;53663;42.676;23.238;2023-11-19T14:02:00;5.78;;;2.97;;
66751;SDS011;53663;42.676;23.238;2023-11-19T14:04:25;4.78;;;2.80;;
66751;SDS011;53663;42.676;23.238;2023-11-19T14:06:51;3.85;;;2.25;;
66751;SDS011;53663;42.676;23.238;2023-11-19T14:09:17;3.50;;;2.33;;
66751;SDS011;53663;42.676;23.238;2023-11-19T14:11:43;8.90;;;2.92;;
66751;SDS011;53663;42.676;23.238;2023-11-19T14:14:09;4.55;;;3.00;;
66751;SDS011;53663;42.676;23.238;2023-11-19T14:16:34;4.97;;;2.17;;
66751;SDS011;53663;42.676;23.238;2023-11-19T14:19:00;5.55;;;2.47;;
66751;SDS011;53663;42.676;23.238;2023-11-19T14:21:26;9.23;;;2.90;;
66751;SDS011;53663;42.676;23.238;2023-11-19T14:23:52;7.43;;;3.55;;
66751;SDS011;53663;42.676;23.238;2023-11-19T14:26:18;6.93;;;3.20;;
66751;SDS011;53663;42.676;23.238;2023-11-19T14:28:43;8.70;;;3.90;;
66751;SDS011;53663;42.676;23.238;2023-11-19T14:31:09;6.47;;;3.05;;
66751;SDS011;53663;42.676;23.238;2023-11-19T14:33:35;5.78;;;2.10;;
66751;SDS011;53663;42.676;23.238;2023-11-19T14:36:01;3.92;;;2.58;;
66751;SDS011;53663;42.676;23.238;2023-11-19T14:38:27;5.13;;;2.63;;
66751;SDS011;53663;42.676;23.238;2023-11-19T14:40:52;7.15;;;3.30;;
66751;SDS011;53663;42.676;23.238;2023-11-19T14:43:18;8.63;;;3.33;;
66751;SDS011;53663;42.676;23.238;2023-11-19T14:45:43;4.68;;;2.40;;
66751;SDS011;53663;42.676;23.238;2023-11-19T14:48:09;5.85;;;2.97;;
66751;SDS011;53663;42.676;23.238;2023-11-19T14:50:35;7.07;;;3.05;;
66751;SDS011;53663;42.676;23.238;2023-11-19T14:53:01;5.55;;;2.90;;
66751;SDS011;53663;42.676;23.238;2023-11-19T14:55:27;10.27;;;3.00;;
66751;SDS011;53663;42.676;23.238;2023-11-19T14:57:52;5.25;;;2.60;;
66751;SDS011;53663;42.676;23.238;2023-11-19T15:00:18;5.30;;;2.78;;
66751;SDS011;53663;42.676;23.238;2023-11-19T15:02:44;7.15;;;4.07;;
66751;SDS011;53663;42.676;23.238;2023-11-19T15:05:10;5.38;;;2.83;;